sensor_id;sensor_type;location;lat;lon;timestamp;temperature;humidity
65058;HTU21D;51644;51.068;5.860;2024-03-23T02:43:51;8.03;95.98
65058;HTU21D;51644;51.068;5.860;2024-03-23T02:44:53;8.05;95.91
65058;HTU21D;51644;51.068;5.860;2024-03-23T02:45:58;8.06;95.91
65058;HTU21D;51644;51.068;5.860;2024-03-23T02:47:00;8.06;95.91
65058;HTU21D;51644;51.068;5.860;2024-03-23T02:47:58;8.06;95.91
65058;HTU21D;51644;51.068;5.860;2024-03-23T02:49:00;8.08;95.87
65058;HTU21D;51644;51.068;5.860;2024-03-23T02:49:59;8.09;95.87
65058;HTU21D;51644;51.068;5.860;2024-03-23T02:51:03;8.13;95.94
65058;HTU21D;51644;51.068;5.860;2024-03-23T02:53:20;8.13;95.83
65058;HTU21D;51644;51.068;5.860;2024-03-23T02:54:19;8.14;95.89
65058;HTU21D;51644;51.068;5.860;2024-03-23T02:55:21;8.13;95.84
65058;HTU21D;51644;51.068;5.860;2024-03-23T02:56:23;8.13;95.90
65058;HTU21D;51644;51.068;5.860;2024-03-23T02:57:24;8.16;95.80
65058;HTU21D;51644;51.068;5.860;2024-03-23T02:58:23;8.19;95.80
65058;HTU21D;51644;51.068;5.860;2024-03-23T02:59:28;8.22;95.76
65058;HTU21D;51644;51.068;5.860;2024-03-23T03:00:28;8.27;95.56
65058;HTU21D;51644;51.068;5.860;2024-03-23T03:01:33;8.28;95.36
65058;HTU21D;51644;51.068;5.860;2024-03-23T03:02:32;8.31;95.14
65058;HTU21D;51644;51.068;5.860;2024-03-23T03:03:34;8.30;94.84
65058;HTU21D;51644;51.068;5.860;2024-03-23T03:04:33;8.29;94.81
65058;HTU21D;51644;51.068;5.860;2024-03-23T03:05:35;8.29;94.80
65058;HTU21D;51644;51.068;5.860;2024-03-23T03:06:47;8.31;94.78
65058;HTU21D;51644;51.068;5.860;2024-03-23T03:07:46;8.29;94.73
65058;HTU21D;51644;51.068;5.860;2024-03-23T03:08:48;8.29;94.62
65058;HTU21D;51644;51.068;5.860;2024-03-23T03:09:46;8.31;94.67
65058;HTU21D;51644;51.068;5.860;2024-03-23T03:11:57;8.29;94.77
65058;HTU21D;51644;51.068;5.860;2024-03-23T03:12:59;8.29;94.63
65058;HTU21D;51644;51.068;5.860;2024-03-23T03:14:00;8.29;94.62
65058;HTU21D;51644;51.068;5.860;2024-03-23T03:15:00;8.26;94.57
65058;HTU21D;51644;51.068;5.860;2024-03-23T03:15:58;8.26;94.68
65058;HTU21D;51644;51.068;5.860;2024-03-23T03:17:00;8.28;94.71
65058;HTU21D;51644;51.068;5.860;2024-03-23T03:18:03;8.29;94.69
65058;HTU21D;51644;51.068;5.860;2024-03-23T03:19:02;8.29;94.53
65058;HTU21D;51644;51.068;5.860;2024-03-23T03:20:03;8.27;94.54
65058;HTU21D;51644;51.068;5.860;2024-03-23T03:21:04;8.28;94.49
65058;HTU21D;51644;51.068;5.860;2024-03-23T03:22:09;8.28;94.52
65058;HTU21D;51644;51.068;5.860;2024-03-23T03:23:08;8.28;94.41
65058;HTU21D;51644;51.068;5.860;2024-03-23T03:24:08;8.27;94.49
65058;HTU21D;51644;51.068;5.860;2024-03-23T03:25:07;8.30;94.40
65058;HTU21D;51644;51.068;5.860;2024-03-23T03:26:09;8.24;94.33
65058;HTU21D;51644;51.068;5.860;2024-03-23T03:27:11;8.26;94.27
65058;HTU21D;51644;51.068;5.860;2024-03-23T03:28:13;8.23;94.31
65058;HTU21D;51644;51.068;5.860;2024-03-23T03:29:17;8.22;94.35
65058;HTU21D;51644;51.068;5.860;2024-03-23T03:30:19;8.22;94.33
65058;HTU21D;51644;51.068;5.860;2024-03-23T03:31:20;8.21;94.34
65058;HTU21D;51644;51.068;5.860;2024-03-23T03:32:20;8.20;94.33
65058;HTU21D;51644;51.068;5.860;2024-03-23T03:33:18;8.20;94.34
65058;HTU21D;51644;51.068;5.860;2024-03-23T03:34:18;8.16;94.40
65058;HTU21D;51644;51.068;5.860;2024-03-23T03:35:19;8.17;94.47
65058;HTU21D;51644;51.068;5.860;2024-03-23T03:36:18;8.15;94.46
65058;HTU21D;51644;51.068;5.860;2024-03-23T03:37:19;8.15;94.51
65058;HTU21D;51644;51.068;5.860;2024-03-23T03:38:19;8.16;94.52
65058;HTU21D;51644;51.068;5.860;2024-03-23T03:39:21;8.16;94.53
65058;HTU21D;51644;51.068;5.860;2024-03-23T03:40:21;8.17;94.47
65058;HTU21D;51644;51.068;5.860;2024-03-23T03:41:20;8.18;94.55
65058;HTU21D;51644;51.068;5.860;2024-03-23T03:42:21;8.19;94.72
65058;HTU21D;51644;51.068;5.860;2024-03-23T03:43:25;8.14;94.06
65058;HTU21D;51644;51.068;5.860;2024-03-23T03:44:24;8.16;94.53
65058;HTU21D;51644;51.068;5.860;2024-03-23T03:45:26;8.15;94.57
65058;HTU21D;51644;51.068;5.860;2024-03-23T03:46:35;8.14;94.53
65058;HTU21D;51644;51.068;5.860;2024-03-23T03:47:57;8.13;94.57
65058;HTU21D;51644;51.068;5.860;2024-03-23T03:48:56;8.15;94.40
65058;HTU21D;51644;51.068;5.860;2024-03-23T03:49:57;8.11;94.48
65058;HTU21D;51644;51.068;5.860;2024-03-23T03:51:04;8.08;94.50
65058;HTU21D;51644;51.068;5.860;2024-03-23T03:52:06;8.08;94.62
65058;HTU21D;51644;51.068;5.860;2024-03-23T03:53:27;8.08;94.81
65058;HTU21D;51644;51.068;5.860;2024-03-23T03:54:29;8.09;94.79
65058;HTU21D;51644;51.068;5.860;2024-03-23T03:55:28;8.11;94.81
65058;HTU21D;51644;51.068;5.860;2024-03-23T03:56:30;8.08;94.91
65058;HTU21D;51644;51.068;5.860;2024-03-23T03:57:32;8.07;94.81
65058;HTU21D;51644;51.068;5.860;2024-03-23T03:58:34;8.05;94.82
65058;HTU21D;51644;51.068;5.860;2024-03-23T03:59:38;8.02;95.04
65058;HTU21D;51644;51.068;5.860;2024-03-23T04:00:49;8.01;95.03
65058;HTU21D;51644;51.068;5.860;2024-03-23T04:01:51;7.97;95.00
65058;HTU21D;51644;51.068;5.860;2024-03-23T04:02:51;7.96;95.16
65058;HTU21D;51644;51.068;5.860;2024-03-23T04:03:53;7.91;95.24
65058;HTU21D;51644;51.068;5.860;2024-03-23T04:04:57;7.92;95.30
65058;HTU21D;51644;51.068;5.860;2024-03-23T04:05:56;7.91;95.28
65058;HTU21D;51644;51.068;5.860;2024-03-23T04:07:10;7.89;95.35
65058;HTU21D;51644;51.068;5.860;2024-03-23T04:08:12;7.88;95.38
65058;HTU21D;51644;51.068;5.860;2024-03-23T04:09:16;7.88;95.41
65058;HTU21D;51644;51.068;5.860;2024-03-23T04:10:21;7.88;95.28
65058;HTU21D;51644;51.068;5.860;2024-03-23T04:11:22;7.85;95.36
65058;HTU21D;51644;51.068;5.860;2024-03-23T04:12:26;7.87;95.40
65058;HTU21D;51644;51.068;5.860;2024-03-23T04:13:34;7.89;95.36
65058;HTU21D;51644;51.068;5.860;2024-03-23T04:14:45;7.89;95.57
65058;HTU21D;51644;51.068;5.860;2024-03-23T04:15:47;7.89;95.46
65058;HTU21D;51644;51.068;5.860;2024-03-23T04:16:49;7.92;95.46
65058;HTU21D;51644;51.068;5.860;2024-03-23T04:17:57;7.93;95.46
65058;HTU21D;51644;51.068;5.860;2024-03-23T04:19:01;7.97;95.35
65058;HTU21D;51644;51.068;5.860;2024-03-23T04:20:04;7.99;95.28
65058;HTU21D;51644;51.068;5.860;2024-03-23T04:21:07;7.99;95.25
65058;HTU21D;51644;51.068;5.860;2024-03-23T04:22:08;7.98;95.20
65058;HTU21D;51644;51.068;5.860;2024-03-23T04:23:10;8.00;95.22
65058;HTU21D;51644;51.068;5.860;2024-03-23T04:24:11;8.01;95.21
65058;HTU21D;51644;51.068;5.860;2024-03-23T04:25:26;8.01;95.24
65058;HTU21D;51644;51.068;5.860;2024-03-23T04:26:39;8.03;95.29
65058;HTU21D;51644;51.068;5.860;2024-03-23T04:27:57;8.01;95.30
65058;HTU21D;51644;51.068;5.860;2024-03-23T04:29:22;8.01;95.20
65058;HTU21D;51644;51.068;5.860;2024-03-23T04:30:21;8.00;95.21
65058;HTU21D;51644;51.068;5.860;2024-03-23T04:31:30;8.00;95.26
65058;HTU21D;51644;51.068;5.860;2024-03-23T04:32:34;7.96;95.26
65058;HTU21D;51644;51.068;5.860;2024-03-23T04:33:37;7.96;95.17
65058;HTU21D;51644;51.068;5.860;2024-03-23T04:36:59;7.77;95.39
65058;HTU21D;51644;51.068;5.860;2024-03-23T04:38:59;7.69;95.64
65058;HTU21D;51644;51.068;5.860;2024-03-23T04:40:01;7.64;95.68
65058;HTU21D;51644;51.068;5.860;2024-03-23T04:41:02;7.59;95.91
65058;HTU21D;51644;51.068;5.860;2024-03-23T04:42:06;7.56;96.01
65058;HTU21D;51644;51.068;5.860;2024-03-23T04:43:15;7.52;96.15
65058;HTU21D;51644;51.068;5.860;2024-03-23T04:44:19;7.44;96.50
65058;HTU21D;51644;51.068;5.860;2024-03-23T04:45:30;7.42;96.50
65058;HTU21D;51644;51.068;5.860;2024-03-23T04:46:35;7.35;96.68
65058;HTU21D;51644;51.068;5.860;2024-03-23T04:47:40;7.33;97.03
65058;HTU21D;51644;51.068;5.860;2024-03-23T04:49:11;7.29;96.99
65058;HTU21D;51644;51.068;5.860;2024-03-23T04:52:30;7.22;97.27
65058;HTU21D;51644;51.068;5.860;2024-03-23T04:53:42;7.20;97.26
65058;HTU21D;51644;51.068;5.860;2024-03-23T04:55:11;7.18;97.32
65058;HTU21D;51644;51.068;5.860;2024-03-23T04:56:27;7.18;97.33
65058;HTU21D;51644;51.068;5.860;2024-03-23T04:58:06;7.13;97.42
65058;HTU21D;51644;51.068;5.860;2024-03-23T04:59:50;7.14;97.31
65058;HTU21D;51644;51.068;5.860;2024-03-23T05:02:48;7.12;97.45
65058;HTU21D;51644;51.068;5.860;2024-03-23T05:03:54;7.11;97.49
65058;HTU21D;51644;51.068;5.860;2024-03-23T05:04:55;7.12;97.49
65058;HTU21D;51644;51.068;5.860;2024-03-23T05:06:02;7.11;97.53
65058;HTU21D;51644;51.068;5.860;2024-03-23T05:07:07;7.11;97.52
65058;HTU21D;51644;51.068;5.860;2024-03-23T05:08:19;7.09;97.58
65058;HTU21D;51644;51.068;5.860;2024-03-23T05:09:47;7.09;97.61
65058;HTU21D;51644;51.068;5.860;2024-03-23T05:10:47;7.05;97.68
65058;HTU21D;51644;51.068;5.860;2024-03-23T05:11:47;7.04;97.74
65058;HTU21D;51644;51.068;5.860;2024-03-23T05:13:03;7.04;97.81
65058;HTU21D;51644;51.068;5.860;2024-03-23T05:14:18;7.00;98.06
65058;HTU21D;51644;51.068;5.860;2024-03-23T05:15:33;6.97;98.26
65058;HTU21D;51644;51.068;5.860;2024-03-23T05:17:13;6.93;98.16
65058;HTU21D;51644;51.068;5.860;2024-03-23T05:19:16;6.90;98.42
65058;HTU21D;51644;51.068;5.860;2024-03-23T05:20:27;6.88;98.41
65058;HTU21D;51644;51.068;5.860;2024-03-23T05:21:55;6.91;98.30
65058;HTU21D;51644;51.068;5.860;2024-03-23T05:23:36;6.87;98.34
65058;HTU21D;51644;51.068;5.860;2024-03-23T05:25:28;6.83;98.42
65058;HTU21D;51644;51.068;5.860;2024-03-23T05:26:40;6.78;98.69
65058;HTU21D;51644;51.068;5.860;2024-03-23T05:27:53;6.79;98.74
65058;HTU21D;51644;51.068;5.860;2024-03-23T05:28:55;6.76;98.88
65058;HTU21D;51644;51.068;5.860;2024-03-23T05:30:28;6.78;98.72
65058;HTU21D;51644;51.068;5.860;2024-03-23T05:32:20;6.72;98.99
65058;HTU21D;51644;51.068;5.860;2024-03-23T05:33:44;6.73;99.03
65058;HTU21D;51644;51.068;5.860;2024-03-23T05:34:56;6.73;98.91
65058;HTU21D;51644;51.068;5.860;2024-03-23T05:36:00;6.76;98.88
65058;HTU21D;51644;51.068;5.860;2024-03-23T05:37:20;6.78;98.84
65058;HTU21D;51644;51.068;5.860;2024-03-23T05:48:21;6.76;98.92
65058;HTU21D;51644;51.068;5.860;2024-03-23T05:50:17;6.76;98.95
65058;HTU21D;51644;51.068;5.860;2024-03-23T05:51:22;6.74;99.11
65058;HTU21D;51644;51.068;5.860;2024-03-23T05:52:29;6.72;99.26
65058;HTU21D;51644;51.068;5.860;2024-03-23T05:53:34;6.74;99.07
65058;HTU21D;51644;51.068;5.860;2024-03-23T05:54:44;6.75;99.19
65058;HTU21D;51644;51.068;5.860;2024-03-23T05:55:49;6.74;99.20
65058;HTU21D;51644;51.068;5.860;2024-03-23T05:56:55;6.75;99.11
65058;HTU21D;51644;51.068;5.860;2024-03-23T05:58:00;6.74;99.33
65058;HTU21D;51644;51.068;5.860;2024-03-23T05:59:05;6.72;99.46
65058;HTU21D;51644;51.068;5.860;2024-03-23T06:00:38;6.73;99.37
65058;HTU21D;51644;51.068;5.860;2024-03-23T06:01:50;6.71;99.44
65058;HTU21D;51644;51.068;5.860;2024-03-23T06:02:52;6.74;99.58
65058;HTU21D;51644;51.068;5.860;2024-03-23T06:03:54;6.73;99.42
65058;HTU21D;51644;51.068;5.860;2024-03-23T06:05:05;6.71;99.57
65058;HTU21D;51644;51.068;5.860;2024-03-23T06:06:04;6.74;99.51
65058;HTU21D;51644;51.068;5.860;2024-03-23T06:07:08;6.78;99.47
65058;HTU21D;51644;51.068;5.860;2024-03-23T06:08:27;6.75;99.61
65058;HTU21D;51644;51.068;5.860;2024-03-23T06:09:42;6.79;99.67
65058;HTU21D;51644;51.068;5.860;2024-03-23T06:11:02;6.80;99.64
65058;HTU21D;51644;51.068;5.860;2024-03-23T06:12:31;6.88;99.31
65058;HTU21D;51644;51.068;5.860;2024-03-23T06:13:42;6.91;99.24
65058;HTU21D;51644;51.068;5.860;2024-03-23T06:14:47;6.99;99.18
65058;HTU21D;51644;51.068;5.860;2024-03-23T06:16:03;7.08;99.13
65058;HTU21D;51644;51.068;5.860;2024-03-23T06:17:18;7.13;99.26
65058;HTU21D;51644;51.068;5.860;2024-03-23T06:18:30;7.27;98.92
65058;HTU21D;51644;51.068;5.860;2024-03-23T06:19:37;7.33;98.85
65058;HTU21D;51644;51.068;5.860;2024-03-23T06:20:38;7.39;98.61
65058;HTU21D;51644;51.068;5.860;2024-03-23T06:21:47;7.43;98.35
65058;HTU21D;51644;51.068;5.860;2024-03-23T06:22:45;7.48;98.39
65058;HTU21D;51644;51.068;5.860;2024-03-23T06:23:54;7.53;98.19
65058;HTU21D;51644;51.068;5.860;2024-03-23T06:24:58;7.60;98.03
65058;HTU21D;51644;51.068;5.860;2024-03-23T06:26:13;7.68;97.90
65058;HTU21D;51644;51.068;5.860;2024-03-23T06:27:21;7.76;97.65
65058;HTU21D;51644;51.068;5.860;2024-03-23T06:28:58;7.82;97.24
65058;HTU21D;51644;51.068;5.860;2024-03-23T06:30:03;7.81;97.20
65058;HTU21D;51644;51.068;5.860;2024-03-23T06:31:02;7.79;97.13
65058;HTU21D;51644;51.068;5.860;2024-03-23T06:32:01;7.79;97.02
65058;HTU21D;51644;51.068;5.860;2024-03-23T06:33:00;7.79;96.46
65058;HTU21D;51644;51.068;5.860;2024-03-23T06:33:58;7.81;96.68
65058;HTU21D;51644;51.068;5.860;2024-03-23T06:35:03;7.77;96.56
65058;HTU21D;51644;51.068;5.860;2024-03-23T06:36:09;7.81;95.59
65058;HTU21D;51644;51.068;5.860;2024-03-23T06:37:09;7.76;91.56
65058;HTU21D;51644;51.068;5.860;2024-03-23T06:38:08;7.74;91.02
65058;HTU21D;51644;51.068;5.860;2024-03-23T06:39:09;7.75;93.53
65058;HTU21D;51644;51.068;5.860;2024-03-23T06:40:11;7.77;93.37
65058;HTU21D;51644;51.068;5.860;2024-03-23T06:41:10;7.82;92.73
65058;HTU21D;51644;51.068;5.860;2024-03-23T06:42:09;7.83;90.57
65058;HTU21D;51644;51.068;5.860;2024-03-23T06:43:11;7.85;90.21
65058;HTU21D;51644;51.068;5.860;2024-03-23T06:44:13;7.83;89.95
65058;HTU21D;51644;51.068;5.860;2024-03-23T06:45:12;7.83;88.91
65058;HTU21D;51644;51.068;5.860;2024-03-23T06:46:13;7.82;89.72
65058;HTU21D;51644;51.068;5.860;2024-03-23T06:47:12;7.82;89.22
65058;HTU21D;51644;51.068;5.860;2024-03-23T06:48:11;7.85;89.03
65058;HTU21D;51644;51.068;5.860;2024-03-23T06:49:10;7.85;88.73
65058;HTU21D;51644;51.068;5.860;2024-03-23T06:50:08;7.82;88.32
65058;HTU21D;51644;51.068;5.860;2024-03-23T06:51:08;7.82;88.14
65058;HTU21D;51644;51.068;5.860;2024-03-23T06:52:07;7.76;86.86
65058;HTU21D;51644;51.068;5.860;2024-03-23T06:53:06;7.73;87.60
65058;HTU21D;51644;51.068;5.860;2024-03-23T06:54:04;7.68;87.46
65058;HTU21D;51644;51.068;5.860;2024-03-23T06:55:04;7.63;87.34
65058;HTU21D;51644;51.068;5.860;2024-03-23T06:56:04;7.59;87.33
65058;HTU21D;51644;51.068;5.860;2024-03-23T06:57:02;7.58;87.34
65058;HTU21D;51644;51.068;5.860;2024-03-23T06:58:01;7.56;87.26
65058;HTU21D;51644;51.068;5.860;2024-03-23T06:59:00;7.55;87.20
65058;HTU21D;51644;51.068;5.860;2024-03-23T06:59:59;7.56;87.09
65058;HTU21D;51644;51.068;5.860;2024-03-23T07:00:57;7.54;86.94
65058;HTU21D;51644;51.068;5.860;2024-03-23T07:01:56;7.50;86.95
65058;HTU21D;51644;51.068;5.860;2024-03-23T07:02:54;7.49;86.86
65058;HTU21D;51644;51.068;5.860;2024-03-23T07:03:53;7.48;86.81
65058;HTU21D;51644;51.068;5.860;2024-03-23T07:04:52;7.53;86.70
65058;HTU21D;51644;51.068;5.860;2024-03-23T07:05:53;7.55;86.73
65058;HTU21D;51644;51.068;5.860;2024-03-23T07:06:56;7.60;86.69
65058;HTU21D;51644;51.068;5.860;2024-03-23T07:07:54;7.71;86.52
65058;HTU21D;51644;51.068;5.860;2024-03-23T07:08:55;7.79;86.41
65058;HTU21D;51644;51.068;5.860;2024-03-23T07:09:54;7.87;86.35
65058;HTU21D;51644;51.068;5.860;2024-03-23T07:10:53;7.94;86.03
65058;HTU21D;51644;51.068;5.860;2024-03-23T07:11:56;7.97;85.86
65058;HTU21D;51644;51.068;5.860;2024-03-23T07:12:55;7.96;85.72
65058;HTU21D;51644;51.068;5.860;2024-03-23T07:13:54;7.97;85.55
65058;HTU21D;51644;51.068;5.860;2024-03-23T07:14:55;7.97;85.57
65058;HTU21D;51644;51.068;5.860;2024-03-23T07:15:54;7.98;85.61
65058;HTU21D;51644;51.068;5.860;2024-03-23T07:16:58;7.98;85.42
65058;HTU21D;51644;51.068;5.860;2024-03-23T07:17:56;8.00;85.42
65058;HTU21D;51644;51.068;5.860;2024-03-23T07:18:55;7.97;85.38
65058;HTU21D;51644;51.068;5.860;2024-03-23T07:19:54;7.99;85.39
65058;HTU21D;51644;51.068;5.860;2024-03-23T07:20:57;7.98;85.15
65058;HTU21D;51644;51.068;5.860;2024-03-23T07:21:56;7.94;85.39
65058;HTU21D;51644;51.068;5.860;2024-03-23T07:22:57;7.93;85.57
65058;HTU21D;51644;51.068;5.860;2024-03-23T07:23:56;7.96;85.67
65058;HTU21D;51644;51.068;5.860;2024-03-23T07:25:00;7.99;85.79
65058;HTU21D;51644;51.068;5.860;2024-03-23T07:26:01;8.04;85.68
65058;HTU21D;51644;51.068;5.860;2024-03-23T07:27:00;8.06;85.61
65058;HTU21D;51644;51.068;5.860;2024-03-23T07:28:00;8.09;85.72
65058;HTU21D;51644;51.068;5.860;2024-03-23T07:28:59;8.13;85.69
65058;HTU21D;51644;51.068;5.860;2024-03-23T07:29:57;8.16;85.80
65058;HTU21D;51644;51.068;5.860;2024-03-23T07:31:07;8.19;85.87
65058;HTU21D;51644;51.068;5.860;2024-03-23T07:32:09;8.28;85.78
65058;HTU21D;51644;51.068;5.860;2024-03-23T07:33:10;8.31;85.77
65058;HTU21D;51644;51.068;5.860;2024-03-23T07:34:08;8.35;86.03
65058;HTU21D;51644;51.068;5.860;2024-03-23T07:35:07;8.46;85.81
65058;HTU21D;51644;51.068;5.860;2024-03-23T07:36:06;8.49;86.82
65058;HTU21D;51644;51.068;5.860;2024-03-23T07:37:04;8.62;85.73
65058;HTU21D;51644;51.068;5.860;2024-03-23T07:38:03;8.63;85.91
65058;HTU21D;51644;51.068;5.860;2024-03-23T07:39:04;8.78;85.54
65058;HTU21D;51644;51.068;5.860;2024-03-23T07:40:02;8.89;85.58
65058;HTU21D;51644;51.068;5.860;2024-03-23T07:41:09;9.08;85.67
65058;HTU21D;51644;51.068;5.860;2024-03-23T07:42:08;9.41;85.23
65058;HTU21D;51644;51.068;5.860;2024-03-23T07:43:06;9.82;84.58
65058;HTU21D;51644;51.068;5.860;2024-03-23T07:44:05;10.29;83.39
65058;HTU21D;51644;51.068;5.860;2024-03-23T07:45:04;10.65;82.16
65058;HTU21D;51644;51.068;5.860;2024-03-23T07:46:04;10.84;80.25
65058;HTU21D;51644;51.068;5.860;2024-03-23T07:47:03;10.86;79.57
65058;HTU21D;51644;51.068;5.860;2024-03-23T07:48:02;10.75;79.73
65058;HTU21D;51644;51.068;5.860;2024-03-23T07:49:00;10.68;80.01
65058;HTU21D;51644;51.068;5.860;2024-03-23T07:49:59;10.78;80.76
65058;HTU21D;51644;51.068;5.860;2024-03-23T07:51:03;11.05;81.63
65058;HTU21D;51644;51.068;5.860;2024-03-23T07:52:02;11.47;81.01
65058;HTU21D;51644;51.068;5.860;2024-03-23T07:53:01;11.89;80.06
65058;HTU21D;51644;51.068;5.860;2024-03-23T07:54:00;12.31;79.08
65058;HTU21D;51644;51.068;5.860;2024-03-23T07:54:58;12.74;77.08
65058;HTU21D;51644;51.068;5.860;2024-03-23T07:56:02;13.17;75.47
65058;HTU21D;51644;51.068;5.860;2024-03-23T07:57:02;13.50;74.25
65058;HTU21D;51644;51.068;5.860;2024-03-23T07:58:01;13.86;73.04
65058;HTU21D;51644;51.068;5.860;2024-03-23T07:59:00;14.20;72.22
65058;HTU21D;51644;51.068;5.860;2024-03-23T07:59:58;14.42;68.57
65058;HTU21D;51644;51.068;5.860;2024-03-23T08:01:09;14.50;69.05
65058;HTU21D;51644;51.068;5.860;2024-03-23T08:02:08;14.59;69.18
65058;HTU21D;51644;51.068;5.860;2024-03-23T08:03:07;14.78;69.42
65058;HTU21D;51644;51.068;5.860;2024-03-23T08:04:06;15.11;67.53
65058;HTU21D;51644;51.068;5.860;2024-03-23T08:05:05;15.27;65.86
65058;HTU21D;51644;51.068;5.860;2024-03-23T08:06:16;15.25;64.77
65058;HTU21D;51644;51.068;5.860;2024-03-23T08:07:15;14.87;62.92
65058;HTU21D;51644;51.068;5.860;2024-03-23T08:08:14;14.51;63.50
65058;HTU21D;51644;51.068;5.860;2024-03-23T08:09:13;14.19;66.07
65058;HTU21D;51644;51.068;5.860;2024-03-23T08:10:11;13.89;67.11
65058;HTU21D;51644;51.068;5.860;2024-03-23T08:11:11;13.55;67.98
65058;HTU21D;51644;51.068;5.860;2024-03-23T08:12:11;13.38;69.30
65058;HTU21D;51644;51.068;5.860;2024-03-23T08:13:09;13.40;70.32
65058;HTU21D;51644;51.068;5.860;2024-03-23T08:14:08;13.55;69.75
65058;HTU21D;51644;51.068;5.860;2024-03-23T08:15:07;13.70;69.79
65058;HTU21D;51644;51.068;5.860;2024-03-23T08:16:05;13.82;68.52
65058;HTU21D;51644;51.068;5.860;2024-03-23T08:17:04;13.89;66.36
65058;HTU21D;51644;51.068;5.860;2024-03-23T08:18:03;13.81;65.75
65058;HTU21D;51644;51.068;5.860;2024-03-23T08:19:02;13.69;67.85
65058;HTU21D;51644;51.068;5.860;2024-03-23T08:20:02;13.68;67.65
65058;HTU21D;51644;51.068;5.860;2024-03-23T08:21:03;13.75;67.84
65058;HTU21D;51644;51.068;5.860;2024-03-23T08:22:02;13.95;68.23
65058;HTU21D;51644;51.068;5.860;2024-03-23T08:23:01;14.24;67.97
65058;HTU21D;51644;51.068;5.860;2024-03-23T08:23:59;14.56;66.40
65058;HTU21D;51644;51.068;5.860;2024-03-23T08:24:58;14.63;62.47
65058;HTU21D;51644;51.068;5.860;2024-03-23T08:26:05;14.73;64.78
65058;HTU21D;51644;51.068;5.860;2024-03-23T08:27:10;14.62;63.51
65058;HTU21D;51644;51.068;5.860;2024-03-23T08:28:09;14.42;64.22
65058;HTU21D;51644;51.068;5.860;2024-03-23T08:29:07;14.09;61.46
65058;HTU21D;51644;51.068;5.860;2024-03-23T08:30:06;13.82;64.20
65058;HTU21D;51644;51.068;5.860;2024-03-23T08:31:07;13.68;65.88
65058;HTU21D;51644;51.068;5.860;2024-03-23T08:32:06;13.49;62.56
65058;HTU21D;51644;51.068;5.860;2024-03-23T08:33:05;13.17;63.16
65058;HTU21D;51644;51.068;5.860;2024-03-23T08:34:03;12.89;65.03
65058;HTU21D;51644;51.068;5.860;2024-03-23T08:35:02;12.64;66.84
65058;HTU21D;51644;51.068;5.860;2024-03-23T08:36:03;12.70;68.41
65058;HTU21D;51644;51.068;5.860;2024-03-23T08:37:01;13.03;64.50
65058;HTU21D;51644;51.068;5.860;2024-03-23T08:38:00;13.44;67.35
65058;HTU21D;51644;51.068;5.860;2024-03-23T08:38:59;13.83;65.76
65058;HTU21D;51644;51.068;5.860;2024-03-23T08:39:57;14.25;63.71
65058;HTU21D;51644;51.068;5.860;2024-03-23T08:40:57;14.65;62.33
65058;HTU21D;51644;51.068;5.860;2024-03-23T08:41:56;14.96;62.05
65058;HTU21D;51644;51.068;5.860;2024-03-23T08:42:55;15.04;57.79
65058;HTU21D;51644;51.068;5.860;2024-03-23T08:43:53;14.99;60.22
65058;HTU21D;51644;51.068;5.860;2024-03-23T08:44:52;15.14;60.41
65058;HTU21D;51644;51.068;5.860;2024-03-23T08:45:51;15.39;60.47
65058;HTU21D;51644;51.068;5.860;2024-03-23T08:46:50;15.72;59.48
65058;HTU21D;51644;51.068;5.860;2024-03-23T08:47:49;15.99;58.62
65058;HTU21D;51644;51.068;5.860;2024-03-23T08:48:47;16.22;57.64
65058;HTU21D;51644;51.068;5.860;2024-03-23T08:49:47;16.50;57.18
65058;HTU21D;51644;51.068;5.860;2024-03-23T08:50:46;16.60;56.45
65058;HTU21D;51644;51.068;5.860;2024-03-23T08:51:45;16.65;52.83
65058;HTU21D;51644;51.068;5.860;2024-03-23T08:52:44;16.57;51.09
65058;HTU21D;51644;51.068;5.860;2024-03-23T08:53:43;16.71;55.70
65058;HTU21D;51644;51.068;5.860;2024-03-23T08:54:42;16.98;56.03
65058;HTU21D;51644;51.068;5.860;2024-03-23T08:55:41;17.36;54.64
65058;HTU21D;51644;51.068;5.860;2024-03-23T08:56:39;17.55;49.05
65058;HTU21D;51644;51.068;5.860;2024-03-23T08:57:38;17.39;52.15
65058;HTU21D;51644;51.068;5.860;2024-03-23T08:58:38;17.10;52.00
65058;HTU21D;51644;51.068;5.860;2024-03-23T08:59:37;16.52;51.53
65058;HTU21D;51644;51.068;5.860;2024-03-23T09:00:36;15.84;52.18
65058;HTU21D;51644;51.068;5.860;2024-03-23T09:01:35;15.18;52.33
65058;HTU21D;51644;51.068;5.860;2024-03-23T09:02:33;14.73;54.10
65058;HTU21D;51644;51.068;5.860;2024-03-23T09:03:32;14.30;56.62
65058;HTU21D;51644;51.068;5.860;2024-03-23T09:04:30;13.95;56.96
65058;HTU21D;51644;51.068;5.860;2024-03-23T09:05:29;13.75;58.65
65058;HTU21D;51644;51.068;5.860;2024-03-23T09:06:33;13.62;59.32
65058;HTU21D;51644;51.068;5.860;2024-03-23T09:07:32;13.49;59.35
65058;HTU21D;51644;51.068;5.860;2024-03-23T09:08:30;13.38;59.85
65058;HTU21D;51644;51.068;5.860;2024-03-23T09:09:29;13.25;59.76
65058;HTU21D;51644;51.068;5.860;2024-03-23T09:10:27;13.18;60.60
65058;HTU21D;51644;51.068;5.860;2024-03-23T09:11:26;13.15;61.35
65058;HTU21D;51644;51.068;5.860;2024-03-23T09:12:25;13.16;61.82
65058;HTU21D;51644;51.068;5.860;2024-03-23T09:13:24;13.11;62.24
65058;HTU21D;51644;51.068;5.860;2024-03-23T09:14:23;12.97;63.42
65058;HTU21D;51644;51.068;5.860;2024-03-23T09:15:21;12.75;63.08
65058;HTU21D;51644;51.068;5.860;2024-03-23T09:16:20;12.60;63.43
65058;HTU21D;51644;51.068;5.860;2024-03-23T09:17:18;12.40;63.53
65058;HTU21D;51644;51.068;5.860;2024-03-23T09:18:17;12.25;64.11
65058;HTU21D;51644;51.068;5.860;2024-03-23T09:19:17;12.12;64.37
65058;HTU21D;51644;51.068;5.860;2024-03-23T09:20:16;12.00;63.75
65058;HTU21D;51644;51.068;5.860;2024-03-23T09:21:14;11.93;64.72
65058;HTU21D;51644;51.068;5.860;2024-03-23T09:22:13;11.81;66.12
65058;HTU21D;51644;51.068;5.860;2024-03-23T09:23:12;11.71;65.83
65058;HTU21D;51644;51.068;5.860;2024-03-23T09:24:10;11.58;65.07
65058;HTU21D;51644;51.068;5.860;2024-03-23T09:25:09;11.46;65.91
65058;HTU21D;51644;51.068;5.860;2024-03-23T09:26:07;11.34;66.17
65058;HTU21D;51644;51.068;5.860;2024-03-23T09:27:06;11.24;65.82
65058;HTU21D;51644;51.068;5.860;2024-03-23T09:28:05;11.09;66.46
65058;HTU21D;51644;51.068;5.860;2024-03-23T09:29:05;10.97;66.77
65058;HTU21D;51644;51.068;5.860;2024-03-23T09:30:03;10.87;66.99
65058;HTU21D;51644;51.068;5.860;2024-03-23T09:31:07;10.81;67.55
65058;HTU21D;51644;51.068;5.860;2024-03-23T09:32:07;10.81;67.87
65058;HTU21D;51644;51.068;5.860;2024-03-23T09:33:05;10.99;68.27
65058;HTU21D;51644;51.068;5.860;2024-03-23T09:34:04;11.28;68.40
65058;HTU21D;51644;51.068;5.860;2024-03-23T09:35:03;11.64;67.45
65058;HTU21D;51644;51.068;5.860;2024-03-23T09:36:04;11.79;67.29
65058;HTU21D;51644;51.068;5.860;2024-03-23T09:37:03;12.06;66.54
65058;HTU21D;51644;51.068;5.860;2024-03-23T09:38:02;12.20;66.49
65058;HTU21D;51644;51.068;5.860;2024-03-23T09:39:01;12.35;66.90
65058;HTU21D;51644;51.068;5.860;2024-03-23T09:39:59;12.53;66.70
65058;HTU21D;51644;51.068;5.860;2024-03-23T09:40:58;12.73;67.42
65058;HTU21D;51644;51.068;5.860;2024-03-23T09:42:00;12.95;67.07
65058;HTU21D;51644;51.068;5.860;2024-03-23T09:42:59;13.18;66.53